createdAt,value
2022-11-15T00:01:48.748Z,11.93
2022-11-15T00:04:16.995Z,14.63
2022-11-15T00:06:47.739Z,11.33
2022-11-15T00:09:21.191Z,12.03
2022-11-15T00:11:53.509Z,13.10
2022-11-15T00:14:22.603Z,12.43
2022-11-15T00:16:50.770Z,13.37
2022-11-15T00:19:18.691Z,11.83
2022-11-15T00:21:47.175Z,11.40
2022-11-15T00:24:21.094Z,14.17
2022-11-15T00:26:50.453Z,12.90
2022-11-15T00:29:18.467Z,11.07
2022-11-15T00:31:46.501Z,11.37
2022-11-15T00:34:14.673Z,13.17
2022-11-15T00:36:42.948Z,13.17
2022-11-15T00:39:11.056Z,13.63
2022-11-15T00:41:38.993Z,13.37
2022-11-15T00:44:08.371Z,12.40
2022-11-15T00:46:38.428Z,13.03
2022-11-15T00:49:06.886Z,11.33
2022-11-15T00:51:34.925Z,11.70
2022-11-15T00:54:03.125Z,11.83
2022-11-15T00:56:31.195Z,13.17
2022-11-15T00:59:00.940Z,11.23
2022-11-15T01:01:31.319Z,10.30
2022-11-15T01:04:01.907Z,11.57
2022-11-15T01:06:29.900Z,10.77
2022-11-15T01:08:57.866Z,13.63
2022-11-15T01:11:25.883Z,10.33
2022-11-15T01:13:54.402Z,10.47
2022-11-15T01:16:22.412Z,9.80
2022-11-15T01:18:52.911Z,9.10
2022-11-15T01:21:21.633Z,10.13
2022-11-15T01:23:50.064Z,10.73
2022-11-15T01:26:21.611Z,12.33
2022-11-15T01:28:49.915Z,9.07
2022-11-15T01:31:19.949Z,9.43
2022-11-15T01:33:49.015Z,8.73
2022-11-15T01:36:23.658Z,9.00
2022-11-15T01:39:00.825Z,8.77
2022-11-15T01:41:31.187Z,9.93
2022-11-15T01:44:20.321Z,9.10
2022-11-15T01:46:50.338Z,9.00
2022-11-15T01:49:21.501Z,10.97
2022-11-15T01:51:50.997Z,9.37
2022-11-15T01:54:26.733Z,7.73
2022-11-15T01:57:00.031Z,8.93
2022-11-15T01:59:29.016Z,7.47
2022-11-15T02:01:57.221Z,8.23
2022-11-15T02:04:28.734Z,8.17
2022-11-15T02:06:58.217Z,9.00
2022-11-15T02:09:26.624Z,7.13
2022-11-15T02:11:56.447Z,7.03
2022-11-15T02:14:27.400Z,7.40
2022-11-15T02:17:02.897Z,6.90
2022-11-15T02:19:52.053Z,5.73
2022-11-15T02:22:33.767Z,6.23
2022-11-15T02:25:19.479Z,6.30
2022-11-15T02:28:10.335Z,6.17
2022-11-15T02:30:51.282Z,7.90
2022-11-15T02:33:33.176Z,7.27
2022-11-15T02:36:04.352Z,5.67
2022-11-15T02:38:42.458Z,5.90
2022-11-15T02:41:15.616Z,5.83
2022-11-15T02:43:57.852Z,6.00
2022-11-15T02:46:46.278Z,6.90
2022-11-15T02:49:16.811Z,5.57
2022-11-15T02:51:48.971Z,5.13
2022-11-15T02:54:22.268Z,6.23
2022-11-15T02:56:52.384Z,6.00
2022-11-15T02:59:49.593Z,8.30
2022-11-15T03:02:39.632Z,5.50
2022-11-15T03:05:18.985Z,7.47
2022-11-15T03:08:02.101Z,7.70
2022-11-15T03:10:39.476Z,5.50
2022-11-15T03:13:23.308Z,6.37
2022-11-15T03:15:59.913Z,5.40
2022-11-15T03:18:35.546Z,7.67
2022-11-15T03:21:10.025Z,6.33
2022-11-15T03:23:39.729Z,5.83
2022-11-15T03:26:13.588Z,6.13
2022-11-15T03:28:46.283Z,6.60
2022-11-15T03:31:35.482Z,7.63
2022-11-15T03:34:12.512Z,7.37
2022-11-15T03:36:40.945Z,6.03
2022-11-15T03:39:10.623Z,6.40
2022-11-15T03:41:45.995Z,6.10
2022-11-15T03:44:20.742Z,6.53
2022-11-15T03:46:55.725Z,5.30
2022-11-15T03:49:30.922Z,6.93
2022-11-15T03:52:00.384Z,6.30
2022-11-15T03:54:28.781Z,6.67
2022-11-15T03:56:56.874Z,6.17
2022-11-15T03:59:27.625Z,6.33
2022-11-15T04:01:55.637Z,6.37
2022-11-15T04:04:25.020Z,7.77
2022-11-15T04:06:54.615Z,7.13
2022-11-15T04:09:22.706Z,7.97
2022-11-15T04:11:52.577Z,7.53
2022-11-15T04:14:20.581Z,5.97
2022-11-15T04:16:48.574Z,7.77
2022-11-15T04:19:34.076Z,8.30
2022-11-15T04:22:20.768Z,6.87
2022-11-15T04:24:53.562Z,7.43
2022-11-15T04:27:21.546Z,6.60
2022-11-15T04:29:49.927Z,7.27
2022-11-15T04:32:19.193Z,7.57
2022-11-15T04:34:48.257Z,8.47
2022-11-15T04:37:17.660Z,7.33
2022-11-15T04:39:48.810Z,8.47
2022-11-15T04:42:17.130Z,7.73
2022-11-15T04:44:47.795Z,8.27
2022-11-15T04:47:15.716Z,9.43
2022-11-15T04:49:44.933Z,8.23
2022-11-15T04:52:14.625Z,7.70
2022-11-15T04:54:44.451Z,9.57
2022-11-15T04:57:12.421Z,8.10
2022-11-15T04:59:40.418Z,10.27
2022-11-15T05:02:10.266Z,7.40
2022-11-15T05:04:37.333Z,8.70
2022-11-15T05:07:06.727Z,9.23
2022-11-15T05:09:34.824Z,9.23
2022-11-15T05:12:04.282Z,7.50
2022-11-15T05:14:32.335Z,8.83
2022-11-15T05:17:03.019Z,8.07
2022-11-15T05:19:31.805Z,8.13
2022-11-15T05:22:02.839Z,8.57
2022-11-15T05:24:30.879Z,9.83
2022-11-15T05:26:58.869Z,8.50
2022-11-15T05:29:31.039Z,9.73
2022-11-15T05:31:59.559Z,8.23
2022-11-15T05:34:27.911Z,9.87
2022-11-15T05:36:55.995Z,9.47
2022-11-15T05:39:27.548Z,10.27
2022-11-15T05:41:59.890Z,13.50
2022-11-15T05:44:30.037Z,12.97
2022-11-15T05:47:01.695Z,15.27
2022-11-15T05:49:33.705Z,14.83
2022-11-15T05:52:02.741Z,13.63
2022-11-15T05:54:30.935Z,14.33
2022-11-15T05:57:03.236Z,12.57
2022-11-15T05:59:33.840Z,12.37
2022-11-15T06:02:04.091Z,16.13
2022-11-15T06:04:32.644Z,13.20
2022-11-15T06:07:01.583Z,14.03
2022-11-15T06:09:29.849Z,13.13
2022-11-15T06:11:57.923Z,14.00
2022-11-15T06:14:25.917Z,15.47
2022-11-15T06:16:56.159Z,15.73
2022-11-15T06:19:35.431Z,13.90
2022-11-15T06:22:06.338Z,13.07
2022-11-15T06:24:37.595Z,13.43
2022-11-15T06:27:06.213Z,13.77
2022-11-15T06:29:34.260Z,16.30
2022-11-15T06:32:03.657Z,17.37
2022-11-15T06:34:31.756Z,13.03
2022-11-15T06:37:00.707Z,14.50
2022-11-15T06:39:32.487Z,14.00
2022-11-15T06:42:00.615Z,19.97
2022-11-15T06:44:30.262Z,13.20
2022-11-15T06:46:58.568Z,14.70
2022-11-15T06:49:28.122Z,15.07
2022-11-15T06:51:59.666Z,14.30
2022-11-15T06:54:27.879Z,15.03
2022-11-15T06:56:55.952Z,15.97
2022-11-15T06:59:24.012Z,12.97
2022-11-15T07:01:52.395Z,15.60
2022-11-15T07:04:21.712Z,15.23
2022-11-15T07:06:51.347Z,14.23
2022-11-15T07:09:21.720Z,14.70
2022-11-15T07:14:46.351Z,15.07
2022-11-15T07:17:14.416Z,28.23
2022-11-15T07:19:44.850Z,33.60
2022-11-15T07:22:20.083Z,22.87
2022-11-15T07:24:48.311Z,20.50
2022-11-15T07:27:16.506Z,16.53
2022-11-15T07:29:46.665Z,14.20
2022-11-15T07:32:15.853Z,15.57
2022-11-15T07:34:44.171Z,13.27
2022-11-15T07:37:14.914Z,14.63
2022-11-15T07:39:43.032Z,15.00
2022-11-15T07:42:29.361Z,13.23
2022-11-15T07:44:59.800Z,13.90
2022-11-15T07:47:33.543Z,10.80
2022-11-15T07:50:01.629Z,11.70
2022-11-15T07:52:31.176Z,13.47
2022-11-15T07:54:59.201Z,10.40
2022-11-15T07:57:27.372Z,10.07
2022-11-15T07:59:56.146Z,9.03
2022-11-15T08:02:29.041Z,7.20
2022-11-15T08:04:58.880Z,8.97
2022-11-15T08:07:27.168Z,7.77
2022-11-15T08:09:58.098Z,8.90
2022-11-15T08:12:26.509Z,9.53
2022-11-15T08:14:54.554Z,8.23
2022-11-15T08:17:22.874Z,9.67
2022-11-15T08:19:51.136Z,8.33
2022-11-15T08:22:21.480Z,8.27
2022-11-15T08:24:51.307Z,8.33
2022-11-15T08:27:23.614Z,10.27
2022-11-15T08:29:55.551Z,9.17
2022-11-15T08:32:30.727Z,7.03
2022-11-15T08:35:01.629Z,9.43
2022-11-15T08:37:29.669Z,10.33
2022-11-15T08:39:59.017Z,8.83
2022-11-15T08:42:28.497Z,10.97
2022-11-15T08:44:58.530Z,6.80
2022-11-15T08:47:30.383Z,5.63
2022-11-15T08:50:01.432Z,10.00
2022-11-15T08:52:29.499Z,8.40
2022-11-15T08:55:04.861Z,9.97
2022-11-15T08:57:35.200Z,5.67
2022-11-15T09:00:05.676Z,6.00
2022-11-15T09:02:33.856Z,6.47
2022-11-15T09:05:12.126Z,5.80
2022-11-15T09:07:44.126Z,5.20
2022-11-15T09:10:12.765Z,6.07
2022-11-15T09:12:47.786Z,4.88
2022-11-15T09:15:20.837Z,6.90
2022-11-15T09:17:49.372Z,5.82
2022-11-15T09:20:18.041Z,4.10
2022-11-15T09:22:46.180Z,4.93
2022-11-15T09:25:14.210Z,4.15
2022-11-15T09:27:42.376Z,4.80
2022-11-15T09:30:14.931Z,6.40
2022-11-15T09:32:42.989Z,5.72
2022-11-15T09:35:11.043Z,5.33
2022-11-15T09:37:40.920Z,5.30
2022-11-15T09:40:14.010Z,3.50
2022-11-15T09:42:59.890Z,3.80
2022-11-15T09:45:36.482Z,4.13
2022-11-15T09:48:36.349Z,4.23
2022-11-15T09:51:06.661Z,6.33
2022-11-15T09:54:37.594Z,5.40
2022-11-15T09:56:33.394Z,3.63
2022-11-15T09:59:19.993Z,5.00
2022-11-15T10:02:02.038Z,4.17
2022-11-15T10:04:30.747Z,3.97
2022-11-15T10:07:07.442Z,3.77
2022-11-15T10:09:43.164Z,3.35
2022-11-15T10:12:14.085Z,3.17
2022-11-15T10:14:42.908Z,4.13
2022-11-15T10:17:46.607Z,5.63
2022-11-15T10:20:21.901Z,4.20
2022-11-15T10:22:53.506Z,5.03
2022-11-15T10:25:25.059Z,4.03
2022-11-15T10:27:56.918Z,5.30
2022-11-15T10:30:26.037Z,3.73
2022-11-15T10:32:55.691Z,3.63
2022-11-15T10:35:27.732Z,3.10
2022-11-15T10:38:08.963Z,5.38
2022-11-15T10:40:37.758Z,4.15
2022-11-15T10:43:17.556Z,5.45
2022-11-15T10:45:47.396Z,5.63
2022-11-15T10:48:29.558Z,4.77
2022-11-15T10:51:00.360Z,3.70
2022-11-15T10:53:35.585Z,3.63
2022-11-15T10:56:11.837Z,3.70
2022-11-15T10:58:43.819Z,3.85
2022-11-15T11:01:18.092Z,5.40
2022-11-15T11:04:00.610Z,5.68
2022-11-15T11:06:31.116Z,5.57
2022-11-15T11:09:01.218Z,4.18
2022-11-15T11:11:47.805Z,3.88
2022-11-15T11:14:22.837Z,4.60
2022-11-15T11:16:54.855Z,3.70
2022-11-15T11:19:51.865Z,5.80
2022-11-15T11:22:26.035Z,4.22
2022-11-15T11:25:10.938Z,4.50
2022-11-15T11:27:45.918Z,6.20
2022-11-15T11:30:19.100Z,5.43
2022-11-15T11:33:04.803Z,4.57
2022-11-15T11:35:41.842Z,4.03
2022-11-15T11:38:23.842Z,3.57
2022-11-15T11:41:10.722Z,4.40
2022-11-15T11:43:47.692Z,6.30
2022-11-15T11:46:50.497Z,5.07
2022-11-15T11:49:23.969Z,4.30
2022-11-15T11:51:56.823Z,4.40
2022-11-15T11:54:34.624Z,6.00
2022-11-15T11:57:11.621Z,4.00
2022-11-15T11:59:45.824Z,4.27
2022-11-15T12:02:20.240Z,5.60
2022-11-15T12:04:52.165Z,4.03
2022-11-15T12:07:26.721Z,6.93
2022-11-15T12:10:02.397Z,4.50
2022-11-15T12:12:37.196Z,5.73
2022-11-15T12:15:14.120Z,5.97
2022-11-15T12:17:43.898Z,5.80
2022-11-15T12:20:18.732Z,7.37
2022-11-15T12:22:55.741Z,5.93
2022-11-15T12:25:29.725Z,5.63
2022-11-15T12:28:05.386Z,6.27
2022-11-15T12:30:48.065Z,5.03
2022-11-15T12:33:38.190Z,7.73
2022-11-15T12:36:11.127Z,4.97
2022-11-15T12:38:58.678Z,6.97
2022-11-15T12:41:28.628Z,9.20
2022-11-15T12:43:57.318Z,7.07
2022-11-15T12:47:02.511Z,5.10
2022-11-15T12:49:50.286Z,8.90
2022-11-15T12:52:18.537Z,7.33
2022-11-15T12:55:02.961Z,8.97
2022-11-15T12:57:41.980Z,11.47
2022-11-15T13:00:51.888Z,8.83
2022-11-15T13:03:34.865Z,8.40
2022-11-15T13:06:09.520Z,6.90
2022-11-15T13:08:46.326Z,5.97
2022-11-15T13:11:50.327Z,7.97
2022-11-15T13:14:43.438Z,6.40
2022-11-15T13:17:34.441Z,6.10
2022-11-15T13:20:24.951Z,5.30
2022-11-15T13:22:58.555Z,6.20
2022-11-15T13:25:44.656Z,6.83
2022-11-15T13:28:30.541Z,6.80
2022-11-15T13:31:01.713Z,8.47
2022-11-15T13:33:36.328Z,6.00
2022-11-15T13:36:08.361Z,6.43
2022-11-15T13:38:39.168Z,7.07
2022-11-15T13:41:21.201Z,6.60
2022-11-15T13:43:52.377Z,7.80
2022-11-15T13:46:23.353Z,7.03
2022-11-15T13:48:57.607Z,9.97
2022-11-15T13:51:35.990Z,8.27
2022-11-15T13:54:10.754Z,7.90
2022-11-15T13:56:39.351Z,7.23
2022-11-15T13:59:16.626Z,6.87
2022-11-15T14:01:45.369Z,7.67
2022-11-15T14:04:17.427Z,9.90
2022-11-15T14:06:53.988Z,10.27
2022-11-15T14:09:39.227Z,11.33
2022-11-15T14:12:30.698Z,8.43
2022-11-15T14:15:01.820Z,6.40
2022-11-15T14:17:45.709Z,7.37
2022-11-15T14:20:33.469Z,7.47
2022-11-15T14:23:03.604Z,7.40
2022-11-15T14:25:33.360Z,8.57
2022-11-15T14:28:21.423Z,8.30
2022-11-15T14:30:55.819Z,9.27
2022-11-15T14:33:26.270Z,6.80
2022-11-15T14:35:55.610Z,8.17
2022-11-15T14:38:23.728Z,7.43
2022-11-15T14:40:56.705Z,7.43
2022-11-15T14:43:28.378Z,6.70
2022-11-15T14:45:58.345Z,8.10
2022-11-15T14:48:26.317Z,12.27
2022-11-15T14:50:54.320Z,10.30
2022-11-15T14:53:23.882Z,7.83
2022-11-15T14:55:52.010Z,8.33
2022-11-15T14:58:22.897Z,7.70
2022-11-15T15:00:51.076Z,11.60
2022-11-15T15:03:22.280Z,8.47
2022-11-15T15:05:53.807Z,10.10
2022-11-15T15:08:21.928Z,10.50
2022-11-15T15:10:57.150Z,9.03
2022-11-15T15:13:29.146Z,10.50
2022-11-15T15:15:57.258Z,9.00
2022-11-15T15:18:26.655Z,10.33
2022-11-15T15:21:01.103Z,10.97
2022-11-15T15:23:31.726Z,10.73
2022-11-15T15:26:02.928Z,9.30
2022-11-15T15:28:34.587Z,10.20
2022-11-15T15:31:03.381Z,10.37
2022-11-15T15:33:32.878Z,12.53
2022-11-15T15:36:02.597Z,13.80
2022-11-15T15:38:31.211Z,12.10
2022-11-15T15:41:03.851Z,12.17
2022-11-15T15:43:31.842Z,11.67
2022-11-15T15:45:59.883Z,12.50
2022-11-15T15:48:27.937Z,14.67
2022-11-15T15:50:57.304Z,12.33
2022-11-15T15:53:26.264Z,12.33
2022-11-15T15:55:54.269Z,16.47
2022-11-15T15:58:22.270Z,15.10
2022-11-15T16:00:50.338Z,19.27
2022-11-15T16:03:18.770Z,15.30
2022-11-15T16:05:47.444Z,12.37
2022-11-15T16:08:21.657Z,17.30
2022-11-15T16:10:50.150Z,15.37
2022-11-15T16:13:23.523Z,12.33
2022-11-15T16:15:55.249Z,14.77
2022-11-15T16:18:25.274Z,13.50
2022-11-15T16:20:57.597Z,15.90
2022-11-15T16:23:26.967Z,10.87
2022-11-15T16:26:03.294Z,12.40
2022-11-15T16:28:35.357Z,12.70
2022-11-15T16:31:05.483Z,12.57
2022-11-15T16:33:34.424Z,15.20
2022-11-15T16:36:07.260Z,12.33
2022-11-15T16:38:40.024Z,12.07
2022-11-15T16:41:08.766Z,13.63
2022-11-15T16:43:36.784Z,16.67
2022-11-15T16:46:15.307Z,15.20
2022-11-15T16:48:43.296Z,13.17
2022-11-15T16:51:11.548Z,56.60
2022-11-15T16:53:41.102Z,25.30
2022-11-15T16:56:27.889Z,24.03
2022-11-15T16:58:58.664Z,24.43
2022-11-15T17:01:28.123Z,20.43
2022-11-15T17:03:59.200Z,18.57
2022-11-15T17:06:29.009Z,17.00
2022-11-15T17:09:00.334Z,18.80
2022-11-15T17:11:28.315Z,16.33
2022-11-15T17:13:59.647Z,41.03
2022-11-15T17:16:31.721Z,22.67
2022-11-15T17:18:59.716Z,22.37
2022-11-15T17:21:32.566Z,19.93
2022-11-15T17:24:03.049Z,21.53
2022-11-15T17:26:36.114Z,18.40
2022-11-15T17:29:09.795Z,20.23
2022-11-15T17:31:39.832Z,18.03
2022-11-15T17:34:10.920Z,23.17
2022-11-15T17:36:40.918Z,22.43
2022-11-15T17:39:10.481Z,20.40
2022-11-15T17:41:38.474Z,24.73
2022-11-15T17:44:06.594Z,25.37
2022-11-15T17:46:36.339Z,24.50
2022-11-15T17:49:05.264Z,30.73
2022-11-15T17:51:36.370Z,27.10
2022-11-15T17:54:04.516Z,29.30
2022-11-15T17:56:39.535Z,24.57
2022-11-15T17:59:13.735Z,23.77
2022-11-15T18:01:43.980Z,24.93
2022-11-15T18:04:13.545Z,24.40
2022-11-15T18:06:41.829Z,27.70
2022-11-15T18:09:12.391Z,22.47
2022-11-15T18:11:44.788Z,24.07
2022-11-15T18:14:15.820Z,25.27
2022-11-15T18:16:43.856Z,32.77
2022-11-15T18:19:17.413Z,26.67
2022-11-15T18:21:59.015Z,30.20
2022-11-15T18:24:29.151Z,27.03
2022-11-15T18:26:59.031Z,24.67
2022-11-15T18:29:30.579Z,26.07
2022-11-15T18:31:59.062Z,24.60
2022-11-15T18:34:31.954Z,22.77
2022-11-15T18:37:00.697Z,22.33
2022-11-15T18:39:30.222Z,21.93
2022-11-15T18:41:59.901Z,25.87
2022-11-15T18:44:29.552Z,21.13
2022-11-15T18:46:57.645Z,19.83
2022-11-15T18:49:27.307Z,20.50
2022-11-15T18:51:58.849Z,18.07
2022-11-15T18:54:31.363Z,18.30
2022-11-15T18:57:01.751Z,24.20
2022-11-15T18:59:30.796Z,18.83
2022-11-15T19:01:59.731Z,16.00
2022-11-15T19:04:27.922Z,19.43
2022-11-15T19:06:56.292Z,16.83
2022-11-15T19:09:34.670Z,17.40
2022-11-15T19:12:04.604Z,18.47
2022-11-15T19:14:32.576Z,19.53
2022-11-15T19:17:01.893Z,20.00
2022-11-15T19:19:29.994Z,18.37
2022-11-15T19:21:58.390Z,20.27
2022-11-15T19:24:29.577Z,20.00
2022-11-15T19:26:59.759Z,18.23
2022-11-15T19:29:29.608Z,18.33
2022-11-15T19:31:57.609Z,18.17
2022-11-15T19:34:25.638Z,16.53
2022-11-15T19:36:54.218Z,16.73
2022-11-15T19:39:22.220Z,19.07
2022-11-15T19:41:50.209Z,16.43
2022-11-15T19:44:20.465Z,17.60
2022-11-15T19:46:53.252Z,19.10
2022-11-15T19:49:22.822Z,20.23
2022-11-15T19:51:50.865Z,19.87
2022-11-15T19:54:18.795Z,18.57
2022-11-15T19:56:47.369Z,17.47
2022-11-15T19:59:15.355Z,18.27
2022-11-15T20:01:43.757Z,19.10
2022-11-15T20:04:13.491Z,22.30
2022-11-15T20:06:43.318Z,19.20
2022-11-15T20:09:14.414Z,18.43
2022-11-15T20:11:43.620Z,16.43
2022-11-15T20:14:13.370Z,16.97
2022-11-15T20:16:41.549Z,18.13
2022-11-15T20:19:12.929Z,18.23
2022-11-15T20:21:42.853Z,17.93
2022-11-15T20:24:11.641Z,20.87
2022-11-15T20:26:43.689Z,18.67
2022-11-15T20:29:11.803Z,16.43
2022-11-15T20:31:40.368Z,18.43
2022-11-15T20:34:08.718Z,20.67
2022-11-15T20:36:39.008Z,17.40
2022-11-15T20:39:08.446Z,16.27
2022-11-15T20:41:36.532Z,19.27
2022-11-15T20:44:04.699Z,17.83
2022-11-15T20:46:35.545Z,19.47
2022-11-15T20:49:04.413Z,19.90
2022-11-15T20:51:32.387Z,20.60
2022-11-15T20:54:00.411Z,19.43
2022-11-15T20:56:29.781Z,17.80
2022-11-15T20:59:00.609Z,19.43
2022-11-15T21:01:29.073Z,19.60
2022-11-15T21:03:57.967Z,19.50
2022-11-15T21:06:29.606Z,20.27
2022-11-15T21:09:14.937Z,18.93
2022-11-15T21:12:02.351Z,20.00
2022-11-15T21:14:31.033Z,21.23
2022-11-15T21:16:59.426Z,24.23
2022-11-15T21:19:32.655Z,21.07
2022-11-15T21:22:05.459Z,23.20
2022-11-15T21:24:33.509Z,23.20
2022-11-15T21:27:02.979Z,21.53
2022-11-15T21:29:42.308Z,24.73
2022-11-15T21:32:12.028Z,23.00
2022-11-15T21:34:40.110Z,22.20
2022-11-15T21:37:12.626Z,23.43
2022-11-15T21:39:42.864Z,23.13
2022-11-15T21:42:12.679Z,21.77
2022-11-15T21:44:40.697Z,21.00
2022-11-15T21:47:08.717Z,19.63
2022-11-15T21:49:36.748Z,24.80
2022-11-15T21:52:05.048Z,22.33
2022-11-15T21:54:33.292Z,22.73
2022-11-15T21:57:01.301Z,23.10
2022-11-15T21:59:30.623Z,25.73
2022-11-15T22:02:19.278Z,25.77
2022-11-15T22:04:49.094Z,26.87
2022-11-15T22:07:17.102Z,25.87
2022-11-15T22:09:45.791Z,26.87
2022-11-15T22:12:13.879Z,26.23
2022-11-15T22:14:43.189Z,25.23
2022-11-15T22:17:19.671Z,27.87
2022-11-15T22:19:52.968Z,29.87
2022-11-15T22:22:21.368Z,30.77
2022-11-15T22:24:49.449Z,32.93
2022-11-15T22:27:17.542Z,30.67
2022-11-15T22:29:49.143Z,32.43
2022-11-15T22:32:19.684Z,32.97
2022-11-15T22:34:47.816Z,33.07
2022-11-15T22:37:20.988Z,37.30
2022-11-15T22:39:55.571Z,33.57
2022-11-15T22:42:24.170Z,36.03
2022-11-15T22:44:53.836Z,37.27
2022-11-15T22:47:21.984Z,35.53
2022-11-15T22:49:50.160Z,36.20
2022-11-15T22:52:18.624Z,38.27
2022-11-15T22:54:48.831Z,38.93
2022-11-15T22:57:16.958Z,38.67
2022-11-15T22:59:47.139Z,40.97
2022-11-15T23:02:17.150Z,36.00
2022-11-15T23:04:49.572Z,47.70
2022-11-15T23:07:17.737Z,35.83
2022-11-15T23:09:51.747Z,44.43
2022-11-15T23:12:37.467Z,34.93
2022-11-15T23:15:07.856Z,32.37
2022-11-15T23:17:37.316Z,35.47
2022-11-15T23:20:22.314Z,38.10
2022-11-15T23:22:53.239Z,42.93
2022-11-15T23:25:29.387Z,42.50
2022-11-15T23:28:02.659Z,38.47
2022-11-15T23:30:53.938Z,34.67
2022-11-15T23:33:41.435Z,42.43
2022-11-15T23:36:10.354Z,67.73
2022-11-15T23:38:39.040Z,37.60
2022-11-15T23:41:10.434Z,37.00
2022-11-15T23:43:38.795Z,38.43
2022-11-15T23:46:07.067Z,47.97
2022-11-15T23:48:37.484Z,72.07
2022-11-15T23:51:05.957Z,49.67
2022-11-15T23:53:34.074Z,38.50
2022-11-15T23:56:07.340Z,53.93
2022-11-15T23:58:35.868Z,54.13
